Terminal Aerodrome Forecast
Issued by NWS

Home | Current Version | Previous Version | Text Only | Print | Product List | Glossary On
Versions: 1 2 3 4 5 6 7 8 9 10 11 12 13 14 15 16 17 18 19 20 21 22 23 24 25 26 27 28
000
FTUS41 KOKX 140800 AAA
TAFTEB
TAF AMD
KTEB 140825Z 1408/1506 VRB05KT 6SM BR SCT012 BKN040 BKN070
      TEMPO 1409/1412 4SM BR SCT007 BKN030
     FM141400 20006KT P6SM SCT020 BKN040 BKN080
     FM141700 19009KT P6SM VCSH BKN040
      TEMPO 1418/1421 4SM TSRA BKN040CB
     FM142100 17008KT 3SM SHRA SCT025 BKN050
      TEMPO 1422/1502 3SM TSRA BKN050CB
     FM150300 18005KT 2SM BR VCSH SCT007 SCT015 BKN030=

USA.gov is the U.S. government's official web portal to all federal, state and local government web resources and services.